createdAt,value
2023-04-20T00:04:34.517Z,2.8
2023-04-20T00:09:34.524Z,2.8
2023-04-20T00:14:34.586Z,2.6
2023-04-20T00:19:56.198Z,2.6
2023-04-20T00:24:34.682Z,2.4
2023-04-20T00:29:34.690Z,2.3
2023-04-20T00:34:34.241Z,2.3
2023-04-20T00:39:34.262Z,2.1
2023-04-20T00:44:34.391Z,1.9
2023-04-20T00:49:34.670Z,1.8
2023-04-20T00:54:34.186Z,1.6
2023-04-20T00:59:34.525Z,1.7
2023-04-20T01:04:34.446Z,1.5
2023-04-20T01:09:34.201Z,1.4
2023-04-20T01:14:34.379Z,1.4
2023-04-20T01:19:34.166Z,1.3
2023-04-20T01:24:34.553Z,1.1
2023-04-20T01:29:34.255Z,1.1
2023-04-20T01:34:34.723Z,1.1
2023-04-20T01:39:34.366Z,1
2023-04-20T01:44:34.210Z,0.8
2023-04-20T01:49:34.285Z,0.8
2023-04-20T01:54:34.256Z,0.9
2023-04-20T01:59:34.522Z,0.8
2023-04-20T02:04:34.320Z,0.8
2023-04-20T02:09:34.594Z,0.6
2023-04-20T02:14:34.288Z,0.4
2023-04-20T02:19:34.323Z,0.4
2023-04-20T02:24:34.521Z,0.3
2023-04-20T02:29:35.200Z,0.4
2023-04-20T02:34:34.232Z,0.7
2023-04-20T02:39:34.540Z,0.8
2023-04-20T02:44:34.235Z,0.8
2023-04-20T02:49:34.307Z,1
2023-04-20T02:54:34.239Z,1
2023-04-20T02:59:34.433Z,0.8
2023-04-20T03:04:34.469Z,0.6
2023-04-20T03:09:34.547Z,0.6
2023-04-20T03:14:34.493Z,0.4
2023-04-20T03:19:34.214Z,0.4
2023-04-20T03:24:34.435Z,0.4
2023-04-20T03:29:36.510Z,0.4
2023-04-20T03:34:34.285Z,0.3
2023-04-20T03:39:34.455Z,0.3
2023-04-20T03:44:34.239Z,0.2
2023-04-20T03:49:34.236Z,0.1
2023-04-20T03:54:34.230Z,0.2
2023-04-20T03:59:34.650Z,0.1
2023-04-20T04:04:34.482Z,0.1
2023-04-20T04:09:34.589Z,0
2023-04-20T04:14:34.381Z,-0.1
2023-04-20T04:19:34.274Z,-0.3
2023-04-20T04:24:34.256Z,-0.2
2023-04-20T04:29:34.485Z,-0.1
2023-04-20T04:34:34.295Z,-0.1
2023-04-20T04:39:34.393Z,0
2023-04-20T04:44:34.346Z,0.2
2023-04-20T04:49:34.254Z,0.3
2023-04-20T04:54:34.250Z,0.3
2023-04-20T04:59:34.565Z,0.3
2023-04-20T05:04:34.355Z,0.4
2023-04-20T05:09:34.240Z,0.3
2023-04-20T05:14:34.241Z,0.4
2023-04-20T05:19:34.182Z,0.6
2023-04-20T05:24:34.311Z,0.5
2023-04-20T05:29:34.172Z,0.6
2023-04-20T05:34:34.426Z,0.8
2023-04-20T05:39:34.231Z,0.9
2023-04-20T12:34:34.364Z,9.8
2023-04-20T12:39:34.250Z,9.6
2023-04-20T12:44:34.230Z,9.4
2023-04-20T12:49:34.271Z,9.5
2023-04-20T12:54:34.225Z,9.7
2023-04-20T12:59:34.273Z,9.8
2023-04-20T13:04:34.321Z,9.6
2023-04-20T13:09:34.290Z,9.7
2023-04-20T13:14:34.623Z,9.7
2023-04-20T13:19:34.449Z,9.5
2023-04-20T13:24:34.416Z,9.9
2023-04-20T13:29:34.240Z,10.1
2023-04-20T13:34:34.351Z,9.9
2023-04-20T13:39:42.106Z,10
2023-04-20T13:44:34.284Z,10.4
2023-04-20T13:59:33.871Z,10.8
2023-04-20T14:04:42.526Z,10.9
2023-04-20T14:09:33.901Z,10.7
2023-04-20T14:14:33.896Z,10.3
2023-04-20T14:24:33.863Z,10.1
2023-04-20T14:29:33.826Z,10
2023-04-20T14:34:33.877Z,10.1
2023-04-20T14:39:33.873Z,10.1
2023-04-20T14:44:33.825Z,10.1
2023-04-20T14:49:33.880Z,10.2
2023-04-20T14:54:33.888Z,10.3
2023-04-20T14:59:34.081Z,10.4
2023-04-20T15:04:34.013Z,10.6
2023-04-20T15:09:33.933Z,10.6
2023-04-20T15:14:33.859Z,10.7
2023-04-20T15:19:33.921Z,10.7
2023-04-20T15:24:33.878Z,10.6
2023-04-20T15:29:33.852Z,10.5
2023-04-20T15:34:33.878Z,10.2
2023-04-20T15:39:33.865Z,10.3
2023-04-20T15:44:33.923Z,10.4
2023-04-20T15:49:33.799Z,10.4
2023-04-20T15:54:33.894Z,11.2
2023-04-20T15:59:33.833Z,11.3
2023-04-20T16:04:33.949Z,11.3
2023-04-20T16:09:33.896Z,11.4
2023-04-20T16:14:33.885Z,12.1
2023-04-20T16:19:33.895Z,13.8
2023-04-20T16:24:33.884Z,13.1
2023-04-20T16:29:33.942Z,13.7
2023-04-20T16:34:34.127Z,12.1
2023-04-20T16:39:33.838Z,11.3
2023-04-20T16:44:33.919Z,11.2
2023-04-20T16:49:33.894Z,11.2
2023-04-20T16:54:33.867Z,11.3
2023-04-20T16:59:33.979Z,11.3
2023-04-20T17:04:33.877Z,11.1
2023-04-20T17:09:33.920Z,10.9
2023-04-20T17:14:33.931Z,10.9
2023-04-20T17:19:33.912Z,10.8
2023-04-20T17:24:33.928Z,10.8
2023-04-20T17:29:33.831Z,10.6
2023-04-20T17:34:33.931Z,10.6
2023-04-20T17:39:34.258Z,10.4
2023-04-20T17:44:33.892Z,10.4
2023-04-20T17:49:33.924Z,10.3
2023-04-20T17:54:33.906Z,10.2
2023-04-20T17:59:33.921Z,10.1
2023-04-20T18:04:34.033Z,10
2023-04-20T18:09:33.964Z,10
2023-04-20T18:14:33.953Z,9.9
2023-04-20T18:19:33.877Z,9.8
2023-04-20T18:24:33.830Z,9.8
2023-04-20T18:29:33.926Z,9.8
2023-04-20T18:34:33.962Z,9.8
2023-04-20T18:39:33.967Z,9.7
2023-04-20T18:44:33.941Z,9.6
2023-04-20T18:49:33.970Z,9.6
2023-04-20T18:54:33.969Z,9.6
2023-04-20T18:59:33.913Z,9.6
2023-04-20T19:04:33.906Z,9.6
2023-04-20T19:09:33.865Z,9.6
2023-04-20T19:14:33.859Z,9.5
2023-04-20T19:19:33.925Z,9.4
2023-04-20T19:24:33.924Z,9.5
2023-04-20T19:29:33.949Z,9.5
2023-04-20T19:34:33.901Z,9.4
2023-04-20T19:44:36.137Z,9.2
2023-04-20T19:49:33.918Z,9.2
2023-04-20T19:54:33.931Z,9.1
2023-04-20T19:59:33.930Z,9
2023-04-20T20:04:34.825Z,8.9
2023-04-20T20:09:33.921Z,8.9
2023-04-20T20:14:35.004Z,8.9
2023-04-20T20:19:33.933Z,8.9
2023-04-20T20:24:33.920Z,8.8
2023-04-20T20:29:33.957Z,8.5
2023-04-20T20:34:33.922Z,8.3
2023-04-20T20:39:33.895Z,8.1
2023-04-20T20:44:33.920Z,7.9
2023-04-20T20:49:33.925Z,8
2023-04-20T20:54:33.928Z,7.9
2023-04-20T20:59:33.949Z,7.8
2023-04-20T21:04:33.867Z,7.8
2023-04-20T21:09:33.971Z,7.9
2023-04-20T21:14:33.958Z,8.1
2023-04-20T21:19:33.947Z,8.2
2023-04-20T21:24:33.942Z,8.2
2023-04-20T21:29:33.999Z,8.3
2023-04-20T21:34:33.945Z,8.4
2023-04-20T21:39:34.011Z,8.5
2023-04-20T21:44:33.966Z,8.6
2023-04-20T21:49:33.870Z,8.6
2023-04-20T21:54:34.695Z,8.6
2023-04-20T21:59:33.922Z,8.6
2023-04-20T22:04:33.955Z,8.6
2023-04-20T22:09:33.859Z,8.6
2023-04-20T22:14:33.941Z,8.6
2023-04-20T22:19:33.899Z,8.6
2023-04-20T22:24:33.932Z,8.5
2023-04-20T22:29:33.923Z,8.5
2023-04-20T22:34:33.945Z,8.5
2023-04-20T22:39:33.998Z,8.4
2023-04-20T22:44:33.958Z,8.4
2023-04-20T22:49:33.928Z,8.4
2023-04-20T22:54:33.901Z,8.4
2023-04-20T22:59:33.940Z,8.3
2023-04-20T23:04:33.915Z,8.4
2023-04-20T23:09:33.921Z,8.4
2023-04-20T23:14:33.941Z,8.3
2023-04-20T23:19:33.925Z,8.3
2023-04-20T23:24:33.939Z,8.3
2023-04-20T23:29:33.894Z,8.3
2023-04-20T23:34:33.949Z,8.3
2023-04-20T23:39:33.917Z,8.3
2023-04-20T23:44:33.909Z,8.3
2023-04-20T23:49:33.931Z,8.1
2023-04-20T23:54:33.943Z,8.1
2023-04-20T23:59:33.917Z,8
